sensor_id;sensor_type;location;lat;lon;timestamp;pressure;altitude;pressure_sealevel;temperature;humidity
71795;BME280;59641;45.188;5.712;2023-04-07T00:01:21;99387.53;;;14.03;32.46
71795;BME280;59641;45.188;5.712;2023-04-07T00:03:47;99389.16;;;14.04;32.60
71795;BME280;59641;45.188;5.712;2023-04-07T00:06:12;99394.56;;;14.04;32.78
71795;BME280;59641;45.188;5.712;2023-04-07T00:08:38;99392.69;;;14.05;32.77
71795;BME280;59641;45.188;5.712;2023-04-07T00:11:04;99382.72;;;14.05;33.05
71795;BME280;59641;45.188;5.712;2023-04-07T00:13:29;99382.72;;;14.05;33.21
71795;BME280;59641;45.188;5.712;2023-04-07T00:15:55;99385.63;;;14.04;33.27
71795;BME280;59641;45.188;5.712;2023-04-07T00:18:20;99382.13;;;14.03;33.37
71795;BME280;59641;45.188;5.712;2023-04-07T00:20:45;99389.16;;;14.04;33.34
71795;BME280;59641;45.188;5.712;2023-04-07T00:23:11;99382.13;;;14.03;33.17
71795;BME280;59641;45.188;5.712;2023-04-07T00:25:36;99380.16;;;13.99;33.47
71795;BME280;59641;45.188;5.712;2023-04-07T00:28:01;99372.56;;;13.96;33.39
71795;BME280;59641;45.188;5.712;2023-04-07T00:30:27;99372.19;;;13.92;33.78
71795;BME280;59641;45.188;5.712;2023-04-07T00:32:52;99369.78;;;13.91;33.47
71795;BME280;59641;45.188;5.712;2023-04-07T00:35:18;99372.69;;;13.89;33.92
71795;BME280;59641;45.188;5.712;2023-04-07T00:37:43;99364.03;;;13.87;33.60
71795;BME280;59641;45.188;5.712;2023-04-07T00:40:09;99361.81;;;13.84;33.83
71795;BME280;59641;45.188;5.712;2023-04-07T00:42:34;99355.03;;;13.81;34.23
71795;BME280;59641;45.188;5.712;2023-04-07T00:45:00;99343.66;;;13.79;34.20
71795;BME280;59641;45.188;5.712;2023-04-07T00:47:26;99337.94;;;13.76;34.25
71795;BME280;59641;45.188;5.712;2023-04-07T00:49:51;99333.81;;;13.73;34.19
71795;BME280;59641;45.188;5.712;2023-04-07T00:52:17;99324.34;;;13.71;34.37
71795;BME280;59641;45.188;5.712;2023-04-07T00:54:43;99322.38;;;13.66;34.11
71795;BME280;59641;45.188;5.712;2023-04-07T00:57:10;99318.28;;;13.63;34.56
71795;BME280;59641;45.188;5.712;2023-04-07T00:59:36;99314.19;;;13.61;34.84
71795;BME280;59641;45.188;5.712;2023-04-07T01:02:09;99319.03;;;13.59;34.73
71795;BME280;59641;45.188;5.712;2023-04-07T01:04:45;99330.25;;;13.56;34.59
71795;BME280;59641;45.188;5.712;2023-04-07T01:07:19;99335.34;;;13.52;34.60
71795;BME280;59641;45.188;5.712;2023-04-07T01:09:54;99328.19;;;13.46;34.74
71795;BME280;59641;45.188;5.712;2023-04-07T01:15:05;99332.81;;;13.34;34.62
71795;BME280;59641;45.188;5.712;2023-04-07T01:17:33;99331.06;;;13.28;34.99
71795;BME280;59641;45.188;5.712;2023-04-07T01:20:02;99326.09;;;13.25;35.19
71795;BME280;59641;45.188;5.712;2023-04-07T01:22:54;99330.34;;;13.20;34.84
71795;BME280;59641;45.188;5.712;2023-04-07T01:31:09;99332.00;;;13.10;35.32
71795;BME280;59641;45.188;5.712;2023-04-07T01:33:36;99336.81;;;13.08;35.28
71795;BME280;59641;45.188;5.712;2023-04-07T01:36:04;99336.22;;;13.06;35.18
71795;BME280;59641;45.188;5.712;2023-04-07T01:38:31;99331.31;;;13.03;35.54
71795;BME280;59641;45.188;5.712;2023-04-07T01:40:58;99339.63;;;13.01;35.60
71795;BME280;59641;45.188;5.712;2023-04-07T01:43:25;99342.56;;;12.99;35.91
71795;BME280;59641;45.188;5.712;2023-04-07T01:45:53;99339.06;;;12.99;35.82
71795;BME280;59641;45.188;5.712;2023-04-07T01:48:19;99332.81;;;12.98;35.88
71795;BME280;59641;45.188;5.712;2023-04-07T01:50:45;99332.00;;;12.98;36.04
71795;BME280;59641;45.188;5.712;2023-04-07T01:53:13;99331.78;;;12.99;36.16
71795;BME280;59641;45.188;5.712;2023-04-07T01:55:41;99336.38;;;12.99;36.19
71795;BME280;59641;45.188;5.712;2023-04-07T01:58:07;99327.44;;;12.98;36.36
71795;BME280;59641;45.188;5.712;2023-04-07T02:00:33;99328.50;;;12.97;36.40
71795;BME280;59641;45.188;5.712;2023-04-07T02:03:22;99328.50;;;12.97;36.50
71795;BME280;59641;45.188;5.712;2023-04-07T02:05:48;99334.13;;;12.96;36.38
71795;BME280;59641;45.188;5.712;2023-04-07T02:08:16;99325.22;;;12.95;36.68
71795;BME280;59641;45.188;5.712;2023-04-07T02:10:45;99329.22;;;12.93;36.67
71795;BME280;59641;45.188;5.712;2023-04-07T02:13:15;99330.28;;;12.92;36.58
71795;BME280;59641;45.188;5.712;2023-04-07T02:15:42;99327.00;;;12.90;36.62
71795;BME280;59641;45.188;5.712;2023-04-07T02:18:12;99327.22;;;12.88;36.43
71795;BME280;59641;45.188;5.712;2023-04-07T02:20:40;99327.94;;;12.84;36.22
71795;BME280;59641;45.188;5.712;2023-04-07T02:23:07;99327.81;;;12.78;36.40
71795;BME280;59641;45.188;5.712;2023-04-07T02:25:32;99318.56;;;12.74;36.31
71795;BME280;59641;45.188;5.712;2023-04-07T02:27:59;99323.13;;;12.74;36.49
71795;BME280;59641;45.188;5.712;2023-04-07T02:30:26;99311.78;;;12.72;36.48
71795;BME280;59641;45.188;5.712;2023-04-07T02:32:51;99310.16;;;12.71;36.19
71795;BME280;59641;45.188;5.712;2023-04-07T02:35:17;99304.88;;;12.64;36.43
71795;BME280;59641;45.188;5.712;2023-04-07T02:37:44;99316.94;;;12.62;36.45
71795;BME280;59641;45.188;5.712;2023-04-07T02:40:09;99321.72;;;12.60;36.60
71795;BME280;59641;45.188;5.712;2023-04-07T02:42:35;99316.59;;;12.58;36.52
71795;BME280;59641;45.188;5.712;2023-04-07T02:45:02;99313.53;;;12.54;36.41
71795;BME280;59641;45.188;5.712;2023-04-07T02:47:27;99311.34;;;12.51;36.68
71795;BME280;59641;45.188;5.712;2023-04-07T02:49:53;99309.94;;;12.49;36.65
71795;BME280;59641;45.188;5.712;2023-04-07T02:52:18;99305.84;;;12.46;36.81
71795;BME280;59641;45.188;5.712;2023-04-07T02:54:43;99311.66;;;12.43;37.17
71795;BME280;59641;45.188;5.712;2023-04-07T02:57:09;99312.72;;;12.42;36.81
71795;BME280;59641;45.188;5.712;2023-04-07T02:59:34;99304.06;;;12.40;37.00
71795;BME280;59641;45.188;5.712;2023-04-07T03:02:00;99298.69;;;12.40;37.01
71795;BME280;59641;45.188;5.712;2023-04-07T03:04:25;99297.06;;;12.39;37.16
71795;BME280;59641;45.188;5.712;2023-04-07T03:06:51;99297.28;;;12.38;37.09
71795;BME280;59641;45.188;5.712;2023-04-07T03:09:17;99298.09;;;12.38;37.36
71795;BME280;59641;45.188;5.712;2023-04-07T03:11:42;99303.25;;;12.40;37.32
71795;BME280;59641;45.188;5.712;2023-04-07T03:14:07;99292.47;;;12.40;37.33
71795;BME280;59641;45.188;5.712;2023-04-07T03:16:33;99285.44;;;12.39;37.28
71795;BME280;59641;45.188;5.712;2023-04-07T03:18:58;99277.63;;;12.37;37.29
71795;BME280;59641;45.188;5.712;2023-04-07T03:21:23;99279.72;;;12.35;37.20
71795;BME280;59641;45.188;5.712;2023-04-07T03:23:49;99277.25;;;12.33;37.17
71795;BME280;59641;45.188;5.712;2023-04-07T03:26:15;99274.81;;;12.32;37.35
71795;BME280;59641;45.188;5.712;2023-04-07T03:28:40;99273.41;;;12.29;37.28
71795;BME280;59641;45.188;5.712;2023-04-07T03:31:05;99282.31;;;12.30;37.10
71795;BME280;59641;45.188;5.712;2023-04-07T03:33:31;99276.31;;;12.28;37.41
71795;BME280;59641;45.188;5.712;2023-04-07T03:35:56;99274.69;;;12.27;37.25
71795;BME280;59641;45.188;5.712;2023-04-07T03:38:21;99264.75;;;12.27;36.95
71795;BME280;59641;45.188;5.712;2023-04-07T03:40:47;99272.25;;;12.25;37.04
71795;BME280;59641;45.188;5.712;2023-04-07T03:43:12;99260.06;;;12.23;37.21
71795;BME280;59641;45.188;5.712;2023-04-07T03:45:40;99258.41;;;12.22;36.95
71795;BME280;59641;45.188;5.712;2023-04-07T03:48:06;99260.28;;;12.21;37.24
71795;BME280;59641;45.188;5.712;2023-04-07T03:50:34;99262.16;;;12.21;37.32
71795;BME280;59641;45.188;5.712;2023-04-07T03:53:00;99250.81;;;12.19;37.25
71795;BME280;59641;45.188;5.712;2023-04-07T03:55:26;99249.19;;;12.18;37.32
71795;BME280;59641;45.188;5.712;2023-04-07T03:57:51;99252.09;;;12.16;37.55
71795;BME280;59641;45.188;5.712;2023-04-07T04:00:17;99247.53;;;12.17;37.52
71795;BME280;59641;45.188;5.712;2023-04-07T04:02:42;99255.03;;;12.14;37.71
71795;BME280;59641;45.188;5.712;2023-04-07T04:05:08;99260.41;;;12.14;37.51
71795;BME280;59641;45.188;5.712;2023-04-07T04:07:33;99249.09;;;12.12;37.30
71795;BME280;59641;45.188;5.712;2023-04-07T04:10:00;99247.09;;;12.08;37.40
71795;BME280;59641;45.188;5.712;2023-04-07T04:12:26;99244.28;;;12.03;37.17
71795;BME280;59641;45.188;5.712;2023-04-07T04:14:51;99238.53;;;11.99;37.63
71795;BME280;59641;45.188;5.712;2023-04-07T04:17:16;99240.41;;;11.99;37.79
71795;BME280;59641;45.188;5.712;2023-04-07T04:19:42;99244.13;;;11.98;37.64
71795;BME280;59641;45.188;5.712;2023-04-07T04:22:07;99241.69;;;11.96;37.68
71795;BME280;59641;45.188;5.712;2023-04-07T04:24:33;99243.56;;;11.96;37.53
71795;BME280;59641;45.188;5.712;2023-04-07T04:26:58;99253.47;;;11.95;37.59
71795;BME280;59641;45.188;5.712;2023-04-07T04:29:23;99257.00;;;11.96;37.65
71795;BME280;59641;45.188;5.712;2023-04-07T04:31:49;99254.31;;;11.96;37.83
71795;BME280;59641;45.188;5.712;2023-04-07T04:34:14;99255.94;;;11.97;37.69
71795;BME280;59641;45.188;5.712;2023-04-07T04:36:40;99258.63;;;11.97;38.01
71795;BME280;59641;45.188;5.712;2023-04-07T04:39:05;99253.03;;;11.98;37.68
71795;BME280;59641;45.188;5.712;2023-04-07T04:41:31;99251.97;;;11.99;37.81
71795;BME280;59641;45.188;5.712;2023-04-07T04:43:56;99249.06;;;12.01;37.90
71795;BME280;59641;45.188;5.712;2023-04-07T04:46:22;99248.59;;;12.04;37.88
71795;BME280;59641;45.188;5.712;2023-04-07T04:48:47;99241.59;;;12.03;37.45
71795;BME280;59641;45.188;5.712;2023-04-07T04:51:12;99239.72;;;12.03;37.56
71795;BME280;59641;45.188;5.712;2023-04-07T04:53:38;99237.25;;;12.02;37.48
71795;BME280;59641;45.188;5.712;2023-04-07T04:56:03;99234.81;;;12.00;37.61
71795;BME280;59641;45.188;5.712;2023-04-07T04:58:29;99238.91;;;12.03;37.64
71795;BME280;59641;45.188;5.712;2023-04-07T05:00:55;99224.88;;;12.01;37.94
71795;BME280;59641;45.188;5.712;2023-04-07T05:03:23;99219.00;;;12.04;37.77
71795;BME280;59641;45.188;5.712;2023-04-07T05:05:49;99228.84;;;11.98;38.56
71795;BME280;59641;45.188;5.712;2023-04-07T05:08:14;99226.38;;;11.97;38.70
71795;BME280;59641;45.188;5.712;2023-04-07T05:10:40;99228.25;;;11.96;38.84
71795;BME280;59641;45.188;5.712;2023-04-07T05:13:06;99232.81;;;11.96;38.75
71795;BME280;59641;45.188;5.712;2023-04-07T05:15:31;99225.56;;;11.96;39.28
71795;BME280;59641;45.188;5.712;2023-04-07T05:17:56;99235.50;;;11.96;38.99
71795;BME280;59641;45.188;5.712;2023-04-07T05:20:22;99243.09;;;11.99;38.90
71795;BME280;59641;45.188;5.712;2023-04-07T05:22:47;99239.59;;;11.98;39.03
71795;BME280;59641;45.188;5.712;2023-04-07T05:25:12;99239.59;;;11.98;39.10
71795;BME280;59641;45.188;5.712;2023-04-07T05:27:38;99235.03;;;11.99;39.07
71795;BME280;59641;45.188;5.712;2023-04-07T05:30:03;99227.78;;;11.99;39.20
71795;BME280;59641;45.188;5.712;2023-04-07T05:32:29;99231.28;;;12.00;39.18
71795;BME280;59641;45.188;5.712;2023-04-07T05:34:54;99230.25;;;12.01;38.79
71795;BME280;59641;45.188;5.712;2023-04-07T05:37:20;99227.78;;;11.99;39.03
71795;BME280;59641;45.188;5.712;2023-04-07T05:39:45;99229.88;;;11.97;38.91
71795;BME280;59641;45.188;5.712;2023-04-07T05:42:11;99232.56;;;11.97;39.06
71795;BME280;59641;45.188;5.712;2023-04-07T05:44:36;99237.94;;;11.97;39.14
71795;BME280;59641;45.188;5.712;2023-04-07T05:47:02;99239.59;;;11.98;39.12
71795;BME280;59641;45.188;5.712;2023-04-07T05:49:30;99235.84;;;11.99;39.24
71795;BME280;59641;45.188;5.712;2023-04-07T05:51:55;99237.25;;;12.02;39.02
71795;BME280;59641;45.188;5.712;2023-04-07T05:54:21;99238.91;;;12.03;38.96
71795;BME280;59641;45.188;5.712;2023-04-07T05:56:46;99231.66;;;12.03;38.70
71795;BME280;59641;45.188;5.712;2023-04-07T05:59:11;99230.00;;;12.02;38.42
71795;BME280;59641;45.188;5.712;2023-04-07T06:01:37;99227.19;;;11.97;38.61
71795;BME280;59641;45.188;5.712;2023-04-07T06:04:02;99233.63;;;11.96;38.67
71795;BME280;59641;45.188;5.712;2023-04-07T06:06:28;99242.50;;;11.97;38.32
71795;BME280;59641;45.188;5.712;2023-04-07T06:08:53;99247.66;;;11.98;38.48
71795;BME280;59641;45.188;5.712;2023-04-07T06:11:19;99261.44;;;12.02;38.67
71795;BME280;59641;45.188;5.712;2023-04-07T06:13:45;99252.91;;;12.05;38.52
71795;BME280;59641;45.188;5.712;2023-04-07T06:16:12;99243.00;;;12.05;38.59
71795;BME280;59641;45.188;5.712;2023-04-07T06:18:37;99240.88;;;12.07;38.81
71795;BME280;59641;45.188;5.712;2023-04-07T06:21:02;99243.09;;;12.10;38.90
71795;BME280;59641;45.188;5.712;2023-04-07T06:23:29;99250.69;;;12.13;39.01
71795;BME280;59641;45.188;5.712;2023-04-07T06:25:55;99252.91;;;12.17;38.82
71795;BME280;59641;45.188;5.712;2023-04-07T06:28:20;99243.22;;;12.15;39.15
71795;BME280;59641;45.188;5.712;2023-04-07T06:30:46;99244.63;;;12.18;39.18
71795;BME280;59641;45.188;5.712;2023-04-07T06:33:14;99246.03;;;12.21;39.19
71795;BME280;59641;45.188;5.712;2023-04-07T06:35:40;99248.50;;;12.22;39.30
71795;BME280;59641;45.188;5.712;2023-04-07T06:38:06;99254.22;;;12.26;39.50
71795;BME280;59641;45.188;5.712;2023-04-07T06:40:32;99253.19;;;12.27;38.97
71795;BME280;59641;45.188;5.712;2023-04-07T06:42:57;99247.81;;;12.27;39.18
71795;BME280;59641;45.188;5.712;2023-04-07T06:45:23;99250.81;;;12.30;39.30
71795;BME280;59641;45.188;5.712;2023-04-07T06:47:48;99249.78;;;12.31;39.39
71795;BME280;59641;45.188;5.712;2023-04-07T06:50:13;99262.78;;;12.34;39.62
71795;BME280;59641;45.188;5.712;2023-04-07T06:52:39;99262.50;;;12.36;39.60
71795;BME280;59641;45.188;5.712;2023-04-07T06:55:05;99273.88;;;12.38;39.83
71795;BME280;59641;45.188;5.712;2023-04-07T06:57:32;99283.34;;;12.41;39.67
71795;BME280;59641;45.188;5.712;2023-04-07T06:59:57;99290.38;;;12.42;39.82
71795;BME280;59641;45.188;5.712;2023-04-07T07:02:23;99289.31;;;12.43;39.53
71795;BME280;59641;45.188;5.712;2023-04-07T07:04:49;99285.34;;;12.45;39.50
71795;BME280;59641;45.188;5.712;2023-04-07T07:07:14;99294.47;;;12.44;39.90
71795;BME280;59641;45.188;5.712;2023-04-07T07:09:40;99297.97;;;12.45;39.87
71795;BME280;59641;45.188;5.712;2023-04-07T07:12:05;99292.00;;;12.43;40.26
71795;BME280;59641;45.188;5.712;2023-04-07T07:14:31;99309.56;;;12.45;40.12
71795;BME280;59641;45.188;5.712;2023-04-07T07:16:56;99291.78;;;12.44;40.77
71795;BME280;59641;45.188;5.712;2023-04-07T07:19:22;99299.59;;;12.46;40.27
71795;BME280;59641;45.188;5.712;2023-04-07T07:21:47;99297.75;;;12.46;40.52
71795;BME280;59641;45.188;5.712;2023-04-07T07:24:13;99299.38;;;12.47;40.78
71795;BME280;59641;45.188;5.712;2023-04-07T07:26:38;99307.22;;;12.49;40.98
71795;BME280;59641;45.188;5.712;2023-04-07T07:29:05;99299.50;;;12.52;40.93
71795;BME280;59641;45.188;5.712;2023-04-07T07:31:30;99309.22;;;12.53;40.91
71795;BME280;59641;45.188;5.712;2023-04-07T07:33:56;99304.78;;;12.59;41.41
71795;BME280;59641;45.188;5.712;2023-04-07T07:36:21;99301.38;;;12.64;41.33
71795;BME280;59641;45.188;5.712;2023-04-07T07:38:49;99310.63;;;12.68;40.71
71795;BME280;59641;45.188;5.712;2023-04-07T07:41:14;99308.50;;;12.70;40.98
71795;BME280;59641;45.188;5.712;2023-04-07T07:43:40;99312.25;;;12.69;41.80
71795;BME280;59641;45.188;5.712;2023-04-07T07:46:05;99312.84;;;12.71;41.86
71795;BME280;59641;45.188;5.712;2023-04-07T07:48:30;99326.91;;;12.73;41.39
71795;BME280;59641;45.188;5.712;2023-04-07T07:50:56;99333.56;;;12.70;42.52
71795;BME280;59641;45.188;5.712;2023-04-07T07:53:21;99331.69;;;12.71;41.69
71795;BME280;59641;45.188;5.712;2023-04-07T07:55:47;99347.84;;;12.71;41.72
71795;BME280;59641;45.188;5.712;2023-04-07T07:58:12;99347.72;;;12.66;42.54
71795;BME280;59641;45.188;5.712;2023-04-07T08:00:38;99346.91;;;12.65;43.64
71795;BME280;59641;45.188;5.712;2023-04-07T08:03:03;99361.88;;;12.61;44.48
71795;BME280;59641;45.188;5.712;2023-04-07T08:05:28;99359.66;;;12.58;44.15
71795;BME280;59641;45.188;5.712;2023-04-07T08:07:54;99361.06;;;12.49;45.42
71795;BME280;59641;45.188;5.712;2023-04-07T08:10:20;99375.22;;;12.44;45.84
71795;BME280;59641;45.188;5.712;2023-04-07T08:12:46;99373.22;;;12.40;45.60
71795;BME280;59641;45.188;5.712;2023-04-07T08:15:11;99374.00;;;12.28;46.17
71795;BME280;59641;45.188;5.712;2023-04-07T08:17:36;99374.81;;;12.17;45.56
71795;BME280;59641;45.188;5.712;2023-04-07T08:20:03;99372.22;;;12.10;45.88
71795;BME280;59641;45.188;5.712;2023-04-07T08:22:29;99380.97;;;12.06;45.84
71795;BME280;59641;45.188;5.712;2023-04-07T08:24:54;99385.16;;;12.02;46.11
71795;BME280;59641;45.188;5.712;2023-04-07T08:27:19;99389.81;;;11.94;47.20
71795;BME280;59641;45.188;5.712;2023-04-07T08:29:50;99392.56;;;11.88;46.96
71795;BME280;59641;45.188;5.712;2023-04-07T08:32:22;99386.44;;;11.81;47.09
71795;BME280;59641;45.188;5.712;2023-04-07T08:34:47;99398.72;;;11.77;47.20
71795;BME280;59641;45.188;5.712;2023-04-07T08:37:12;99402.28;;;11.70;47.06
71795;BME280;59641;45.188;5.712;2023-04-07T08:39:38;99399.25;;;11.67;46.88
71795;BME280;59641;45.188;5.712;2023-04-07T08:42:03;99412.91;;;11.65;46.76
71795;BME280;59641;45.188;5.712;2023-04-07T08:44:29;99411.28;;;11.64;47.65
71795;BME280;59641;45.188;5.712;2023-04-07T08:46:56;99407.75;;;11.64;46.96
71795;BME280;59641;45.188;5.712;2023-04-07T08:49:23;99409.41;;;11.65;48.12
71795;BME280;59641;45.188;5.712;2023-04-07T08:51:53;99410.00;;;11.67;48.11
71795;BME280;59641;45.188;5.712;2023-04-07T08:54:19;99415.97;;;11.69;48.13
71795;BME280;59641;45.188;5.712;2023-04-07T08:56:46;99408.25;;;11.72;48.00
71795;BME280;59641;45.188;5.712;2023-04-07T08:59:13;99422.91;;;11.77;47.75
71795;BME280;59641;45.188;5.712;2023-04-07T09:01:40;99421.84;;;11.78;48.60
71795;BME280;59641;45.188;5.712;2023-04-07T09:04:07;99431.09;;;11.82;47.71
71795;BME280;59641;45.188;5.712;2023-04-07T09:06:33;99429.22;;;11.82;48.17
71795;BME280;59641;45.188;5.712;2023-04-07T09:09:00;99434.63;;;11.82;48.79
71795;BME280;59641;45.188;5.712;2023-04-07T09:11:26;99439.78;;;11.84;48.44
71795;BME280;59641;45.188;5.712;2023-04-07T09:13:52;99446.78;;;11.85;49.07
71795;BME280;59641;45.188;5.712;2023-04-07T09:16:18;99443.06;;;11.86;49.11
71795;BME280;59641;45.188;5.712;2023-04-07T09:18:44;99446.56;;;11.86;49.37
71795;BME280;59641;45.188;5.712;2023-04-07T09:21:10;99446.34;;;11.88;48.86
71795;BME280;59641;45.188;5.712;2023-04-07T09:23:39;99452.16;;;11.85;48.97
71795;BME280;59641;45.188;5.712;2023-04-07T09:26:31;99447.41;;;11.87;48.67
71795;BME280;59641;45.188;5.712;2023-04-07T09:28:59;99445.97;;;11.84;48.97
71795;BME280;59641;45.188;5.712;2023-04-07T09:31:47;99448.88;;;11.83;49.45
71795;BME280;59641;45.188;5.712;2023-04-07T09:34:23;99449.53;;;11.78;49.41
71795;BME280;59641;45.188;5.712;2023-04-07T09:36:49;99446.03;;;11.78;49.47
71795;BME280;59641;45.188;5.712;2023-04-07T09:39:15;99444.63;;;11.75;49.58
71795;BME280;59641;45.188;5.712;2023-04-07T09:41:40;99448.97;;;11.76;50.34
71795;BME280;59641;45.188;5.712;2023-04-07T09:44:06;99450.81;;;11.76;50.25
71795;BME280;59641;45.188;5.712;2023-04-07T09:46:32;99450.38;;;11.79;50.66
71795;BME280;59641;45.188;5.712;2023-04-07T09:49:03;99449.78;;;11.77;51.45
71795;BME280;59641;45.188;5.712;2023-04-07T09:51:29;99454.91;;;11.78;51.71
71795;BME280;59641;45.188;5.712;2023-04-07T09:53:55;99457.75;;;11.83;51.17
71795;BME280;59641;45.188;5.712;2023-04-07T09:56:21;99446.56;;;11.86;51.14
71795;BME280;59641;45.188;5.712;2023-04-07T09:58:47;99452.31;;;11.90;51.01
71795;BME280;59641;45.188;5.712;2023-04-07T10:01:16;99446.53;;;11.93;51.51
71795;BME280;59641;45.188;5.712;2023-04-07T10:03:42;99449.56;;;11.97;51.75
71795;BME280;59641;45.188;5.712;2023-04-07T10:06:07;99449.69;;;12.02;52.40
71795;BME280;59641;45.188;5.712;2023-04-07T10:08:36;99450.50;;;12.02;53.33
71795;BME280;59641;45.188;5.712;2023-04-07T10:11:03;99442.16;;;12.10;52.54
71795;BME280;59641;45.188;5.712;2023-04-07T10:13:30;99446.59;;;12.17;52.45
71795;BME280;59641;45.188;5.712;2023-04-07T10:15:57;99441.13;;;12.23;53.25
71795;BME280;59641;45.188;5.712;2023-04-07T10:18:27;99435.66;;;12.30;52.46
71795;BME280;59641;45.188;5.712;2023-04-07T10:20:54;99437.19;;;12.38;52.68
71795;BME280;59641;45.188;5.712;2023-04-07T10:23:58;99426.22;;;12.39;52.49
71795;BME280;59641;45.188;5.712;2023-04-07T10:26:31;99429.25;;;12.43;52.74
71795;BME280;59641;45.188;5.712;2023-04-07T10:29:05;99438.13;;;12.43;52.40
71795;BME280;59641;45.188;5.712;2023-04-07T10:31:32;99430.66;;;12.45;52.53
71795;BME280;59641;45.188;5.712;2023-04-07T10:33:58;99429.75;;;12.51;52.63
71795;BME280;59641;45.188;5.712;2023-04-07T10:36:23;99421.22;;;12.54;51.91
71795;BME280;59641;45.188;5.712;2023-04-07T10:41:35;99412.34;;;12.66;52.50
71795;BME280;59641;45.188;5.712;2023-04-07T10:44:05;99409.28;;;12.74;52.38
71795;BME280;59641;45.188;5.712;2023-04-07T10:49:17;99403.91;;;12.86;52.44
71795;BME280;59641;45.188;5.712;2023-04-07T10:51:43;99389.97;;;12.89;52.18
71795;BME280;59641;45.188;5.712;2023-04-07T10:54:21;99391.53;;;12.96;52.41
71795;BME280;59641;45.188;5.712;2023-04-07T10:59:33;99397.34;;;12.93;51.39
71795;BME280;59641;45.188;5.712;2023-04-07T11:04:37;99384.25;;;12.97;51.05
71795;BME280;59641;45.188;5.712;2023-04-07T11:07:02;99384.16;;;13.04;51.09
71795;BME280;59641;45.188;5.712;2023-04-07T11:09:28;99371.22;;;13.06;50.79
71795;BME280;59641;45.188;5.712;2023-04-07T11:11:53;99370.53;;;13.10;51.28
71795;BME280;59641;45.188;5.712;2023-04-07T11:14:29;99357.75;;;13.17;50.50
71795;BME280;59641;45.188;5.712;2023-04-07T11:16:56;99360.00;;;13.20;50.83
71795;BME280;59641;45.188;5.712;2023-04-07T11:19:22;99356.13;;;13.28;50.53
71795;BME280;59641;45.188;5.712;2023-04-07T11:21:48;99352.03;;;13.37;50.41
71795;BME280;59641;45.188;5.712;2023-04-07T11:24:35;99350.56;;;13.47;50.36
71795;BME280;59641;45.188;5.712;2023-04-07T11:27:04;99352.31;;;13.53;50.65
71795;BME280;59641;45.188;5.712;2023-04-07T11:29:31;99346.06;;;13.64;50.41
71795;BME280;59641;45.188;5.712;2023-04-07T11:32:01;99337.94;;;13.76;50.41
71795;BME280;59641;45.188;5.712;2023-04-07T11:34:34;99325.44;;;13.87;50.17
71795;BME280;59641;45.188;5.712;2023-04-07T11:37:20;99318.91;;;13.99;50.23
71795;BME280;59641;45.188;5.712;2023-04-07T11:39:56;99316.97;;;14.12;50.18
71795;BME280;59641;45.188;5.712;2023-04-07T11:42:38;99316.44;;;14.26;50.12
71795;BME280;59641;45.188;5.712;2023-04-07T11:45:05;99309.63;;;14.41;49.72
71795;BME280;59641;45.188;5.712;2023-04-07T11:47:39;99295.59;;;14.56;49.67
71795;BME280;59641;45.188;5.712;2023-04-07T11:50:06;99296.88;;;14.70;49.35
71795;BME280;59641;45.188;5.712;2023-04-07T11:52:45;99290.84;;;14.85;49.03
71795;BME280;59641;45.188;5.712;2023-04-07T11:55:22;99285.84;;;14.94;48.32
71795;BME280;59641;45.188;5.712;2023-04-07T11:57:49;99279.19;;;15.01;48.27
71795;BME280;59641;45.188;5.712;2023-04-07T12:00:18;99277.41;;;15.12;47.92
71795;BME280;59641;45.188;5.712;2023-04-07T12:02:44;99278.84;;;15.20;47.69
71795;BME280;59641;45.188;5.712;2023-04-07T12:05:10;99274.59;;;15.24;47.46
71795;BME280;59641;45.188;5.712;2023-04-07T12:07:36;99273.59;;;15.30;47.50
71795;BME280;59641;45.188;5.712;2023-04-07T12:12:44;99269.66;;;15.43;47.47
71795;BME280;59641;45.188;5.712;2023-04-07T12:15:10;99274.56;;;15.46;47.49
71795;BME280;59641;45.188;5.712;2023-04-07T12:17:35;99268.91;;;15.47;47.69
71795;BME280;59641;45.188;5.712;2023-04-07T12:20:01;99267.81;;;15.48;47.69
71795;BME280;59641;45.188;5.712;2023-04-07T12:22:26;99267.00;;;15.48;46.81
71795;BME280;59641;45.188;5.712;2023-04-07T12:24:52;99266.22;;;15.47;46.90
71795;BME280;59641;45.188;5.712;2023-04-07T12:27:17;99261.31;;;15.44;46.17
71795;BME280;59641;45.188;5.712;2023-04-07T12:29:43;99259.59;;;15.38;46.10
71795;BME280;59641;45.188;5.712;2023-04-07T12:32:08;99254.97;;;15.33;46.30
71795;BME280;59641;45.188;5.712;2023-04-07T12:34:34;99251.13;;;15.29;46.05
71795;BME280;59641;45.188;5.712;2023-04-07T12:37:01;99245.41;;;15.26;45.56
71795;BME280;59641;45.188;5.712;2023-04-07T12:39:27;99244.84;;;15.24;45.38
71795;BME280;59641;45.188;5.712;2023-04-07T12:41:52;99237.25;;;15.21;45.63
71795;BME280;59641;45.188;5.712;2023-04-07T12:44:18;99228.34;;;15.20;45.11
71795;BME280;59641;45.188;5.712;2023-04-07T12:46:43;99235.88;;;15.18;45.26
71795;BME280;59641;45.188;5.712;2023-04-07T12:49:09;99220.47;;;15.19;44.98
71795;BME280;59641;45.188;5.712;2023-04-07T12:51:35;99225.88;;;15.19;45.52
71795;BME280;59641;45.188;5.712;2023-04-07T12:54:01;99225.13;;;15.23;45.69
71795;BME280;59641;45.188;5.712;2023-04-07T12:56:27;99221.91;;;15.26;45.33
71795;BME280;59641;45.188;5.712;2023-04-07T12:58:53;99221.16;;;15.31;45.22
71795;BME280;59641;45.188;5.712;2023-04-07T13:01:19;99197.94;;;15.35;44.74
71795;BME280;59641;45.188;5.712;2023-04-07T13:03:44;99189.56;;;15.37;44.54
71795;BME280;59641;45.188;5.712;2023-04-07T13:06:10;99180.69;;;15.41;44.56
71795;BME280;59641;45.188;5.712;2023-04-07T13:08:35;99185.03;;;15.42;43.95
71795;BME280;59641;45.188;5.712;2023-04-07T13:11:01;99183.16;;;15.43;43.02
71795;BME280;59641;45.188;5.712;2023-04-07T13:13:26;99177.22;;;15.46;43.71
71795;BME280;59641;45.188;5.712;2023-04-07T13:15:52;99174.56;;;15.51;43.39
71795;BME280;59641;45.188;5.712;2023-04-07T13:18:17;99180.00;;;15.56;43.48
71795;BME280;59641;45.188;5.712;2023-04-07T13:20:43;99179.19;;;15.55;41.97